sensor_id;sensor_type;location;lat;lon;timestamp;pressure;altitude;pressure_sealevel;temperature;humidity
23899;BME280;20544;50.018;20.010;2023-05-01T00:02:45;99315.09;;;4.78;100.00
23899;BME280;20544;50.018;20.010;2023-05-01T00:06:03;99315.81;;;4.80;100.00
23899;BME280;20544;50.018;20.010;2023-05-01T00:09:19;99309.55;;;4.71;100.00
23899;BME280;20544;50.018;20.010;2023-05-01T00:12:36;99307.44;;;4.65;100.00
23899;BME280;20544;50.018;20.010;2023-05-01T00:15:52;99311.16;;;4.62;100.00
23899;BME280;20544;50.018;20.010;2023-05-01T00:19:13;99309.16;;;4.54;100.00
23899;BME280;20544;50.018;20.010;2023-05-01T00:22:32;99302.73;;;4.37;100.00
23899;BME280;20544;50.018;20.010;2023-05-01T00:25:48;99299.89;;;4.50;100.00
23899;BME280;20544;50.018;20.010;2023-05-01T00:29:05;99308.80;;;4.38;100.00
23899;BME280;20544;50.018;20.010;2023-05-01T00:32:22;99307.78;;;4.29;100.00
23899;BME280;20544;50.018;20.010;2023-05-01T00:35:39;99312.52;;;4.35;100.00
23899;BME280;20544;50.018;20.010;2023-05-01T00:39:00;99314.27;;;4.25;100.00
23899;BME280;20544;50.018;20.010;2023-05-01T00:42:17;99312.90;;;4.31;100.00
23899;BME280;20544;50.018;20.010;2023-05-01T00:45:33;99311.64;;;4.25;100.00
23899;BME280;20544;50.018;20.010;2023-05-01T00:48:50;99305.43;;;4.26;100.00
23899;BME280;20544;50.018;20.010;2023-05-01T00:52:07;99309.11;;;4.24;100.00
23899;BME280;20544;50.018;20.010;2023-05-01T00:55:23;99317.77;;;4.14;100.00
23899;BME280;20544;50.018;20.010;2023-05-01T00:58:41;99316.55;;;4.18;100.00
23899;BME280;20544;50.018;20.010;2023-05-01T01:01:58;99316.10;;;4.13;100.00
23899;BME280;20544;50.018;20.010;2023-05-01T01:05:15;99316.10;;;4.13;100.00
23899;BME280;20544;50.018;20.010;2023-05-01T01:08:35;99318.86;;;4.12;100.00
23899;BME280;20544;50.018;20.010;2023-05-01T01:11:59;99306.83;;;4.09;100.00
23899;BME280;20544;50.018;20.010;2023-05-01T01:15:22;99309.31;;;4.11;100.00
23899;BME280;20544;50.018;20.010;2023-05-01T01:18:46;99307.91;;;4.07;100.00
23899;BME280;20544;50.018;20.010;2023-05-01T01:22:06;99308.28;;;4.02;100.00
23899;BME280;20544;50.018;20.010;2023-05-01T01:25:37;99308.66;;;3.97;100.00
23899;BME280;20544;50.018;20.010;2023-05-01T01:37:07;99301.55;;;3.88;100.00
23899;BME280;20544;50.018;20.010;2023-05-01T01:40:28;99310.52;;;3.85;100.00
23899;BME280;20544;50.018;20.010;2023-05-01T01:43:51;99289.67;;;3.72;100.00
23899;BME280;20544;50.018;20.010;2023-05-01T01:47:11;99299.02;;;3.65;100.00
23899;BME280;20544;50.018;20.010;2023-05-01T01:50:29;99297.48;;;3.63;100.00
23899;BME280;20544;50.018;20.010;2023-05-01T01:53:50;99296.40;;;3.65;100.00
23899;BME280;20544;50.018;20.010;2023-05-01T01:57:08;99292.73;;;3.56;100.00
23899;BME280;20544;50.018;20.010;2023-05-01T02:00:24;99294.38;;;3.58;100.00
23899;BME280;20544;50.018;20.010;2023-05-01T02:03:50;99292.02;;;3.54;100.00
23899;BME280;20544;50.018;20.010;2023-05-01T02:07:09;99285.72;;;3.46;100.00
23899;BME280;20544;50.018;20.010;2023-05-01T02:10:28;99281.20;;;3.36;100.00
23899;BME280;20544;50.018;20.010;2023-05-01T02:13:46;99285.63;;;3.36;100.00
23899;BME280;20544;50.018;20.010;2023-05-01T02:17:05;99285.17;;;3.31;100.00
23899;BME280;20544;50.018;20.010;2023-05-01T02:20:22;99281.59;;;3.32;100.00
23899;BME280;20544;50.018;20.010;2023-05-01T02:23:40;99281.84;;;3.17;100.00
23899;BME280;20544;50.018;20.010;2023-05-01T02:26:58;99275.23;;;2.90;100.00
23899;BME280;20544;50.018;20.010;2023-05-01T02:30:18;99283.06;;;3.13;100.00
23899;BME280;20544;50.018;20.010;2023-05-01T02:33:34;99279.25;;;3.06;100.00
23899;BME280;20544;50.018;20.010;2023-05-01T02:36:51;99282.35;;;3.00;100.00
23899;BME280;20544;50.018;20.010;2023-05-01T02:40:09;99281.52;;;3.11;100.00
23899;BME280;20544;50.018;20.010;2023-05-01T02:43:28;99278.06;;;2.99;100.00
23899;BME280;20544;50.018;20.010;2023-05-01T02:46:48;99282.70;;;2.95;100.00
23899;BME280;20544;50.018;20.010;2023-05-01T02:50:07;99283.31;;;2.87;100.00
23899;BME280;20544;50.018;20.010;2023-05-01T02:53:24;99277.25;;;2.87;100.00
23899;BME280;20544;50.018;20.010;2023-05-01T02:56:43;99280.22;;;2.82;100.00
23899;BME280;20544;50.018;20.010;2023-05-01T03:00:00;99282.59;;;2.85;100.00
23899;BME280;20544;50.018;20.010;2023-05-01T03:03:21;99274.03;;;2.83;100.00
23899;BME280;20544;50.018;20.010;2023-05-01T03:06:38;99278.80;;;2.89;100.00
23899;BME280;20544;50.018;20.010;2023-05-01T03:09:55;99273.09;;;2.84;100.00
23899;BME280;20544;50.018;20.010;2023-05-01T03:13:12;99268.80;;;2.83;100.00
23899;BME280;20544;50.018;20.010;2023-05-01T03:16:32;99265.33;;;2.83;100.00
23899;BME280;20544;50.018;20.010;2023-05-01T03:19:48;99258.42;;;2.70;100.00
23899;BME280;20544;50.018;20.010;2023-05-01T03:23:05;99258.80;;;2.66;100.00
23899;BME280;20544;50.018;20.010;2023-05-01T03:26:22;99262.59;;;2.62;100.00
23899;BME280;20544;50.018;20.010;2023-05-01T03:29:38;99250.34;;;2.62;100.00
23899;BME280;20544;50.018;20.010;2023-05-01T03:32:55;99257.83;;;2.44;100.00
23899;BME280;20544;50.018;20.010;2023-05-01T03:36:12;99257.61;;;2.58;100.00
23899;BME280;20544;50.018;20.010;2023-05-01T03:39:30;99259.88;;;2.63;100.00
23899;BME280;20544;50.018;20.010;2023-05-01T03:42:48;99246.66;;;2.65;100.00
23899;BME280;20544;50.018;20.010;2023-05-01T03:46:05;99250.95;;;2.66;100.00
23899;BME280;20544;50.018;20.010;2023-05-01T03:49:22;99249.39;;;2.74;100.00
23899;BME280;20544;50.018;20.010;2023-05-01T03:52:38;99246.76;;;2.86;100.00
23899;BME280;20544;50.018;20.010;2023-05-01T03:55:55;99243.66;;;2.92;100.00
23899;BME280;20544;50.018;20.010;2023-05-01T03:59:14;99237.34;;;2.95;100.00
23899;BME280;20544;50.018;20.010;2023-05-01T04:02:31;99248.05;;;3.03;100.00
23899;BME280;20544;50.018;20.010;2023-05-01T04:05:48;99251.23;;;3.06;100.00
23899;BME280;20544;50.018;20.010;2023-05-01T04:09:04;99251.73;;;3.12;100.00
23899;BME280;20544;50.018;20.010;2023-05-01T04:12:21;99251.08;;;3.31;100.00
23899;BME280;20544;50.018;20.010;2023-05-01T04:15:37;99255.92;;;3.47;100.00
23899;BME280;20544;50.018;20.010;2023-05-01T04:18:56;99254.92;;;3.59;100.00
23899;BME280;20544;50.018;20.010;2023-05-01T04:22:13;99254.02;;;3.70;100.00
23899;BME280;20544;50.018;20.010;2023-05-01T04:25:31;99255.19;;;3.77;100.00
23899;BME280;20544;50.018;20.010;2023-05-01T04:28:49;99253.59;;;3.86;100.00
23899;BME280;20544;50.018;20.010;2023-05-01T04:32:05;99253.29;;;4.00;100.00
23899;BME280;20544;50.018;20.010;2023-05-01T04:35:22;99251.11;;;4.05;100.00
23899;BME280;20544;50.018;20.010;2023-05-01T04:38:39;99244.45;;;4.23;100.00
23899;BME280;20544;50.018;20.010;2023-05-01T04:41:56;99254.36;;;4.40;100.00
23899;BME280;20544;50.018;20.010;2023-05-01T04:45:13;99255.09;;;4.52;100.00
23899;BME280;20544;50.018;20.010;2023-05-01T04:48:30;99251.41;;;4.64;100.00
23899;BME280;20544;50.018;20.010;2023-05-01T04:51:46;99247.05;;;4.84;100.00
23899;BME280;20544;50.018;20.010;2023-05-01T04:55:09;99252.34;;;4.94;100.00
23899;BME280;20544;50.018;20.010;2023-05-01T04:58:44;99245.61;;;5.11;100.00
23899;BME280;20544;50.018;20.010;2023-05-01T05:02:02;99246.88;;;5.27;100.00
23899;BME280;20544;50.018;20.010;2023-05-01T05:05:18;99250.23;;;5.39;100.00
23899;BME280;20544;50.018;20.010;2023-05-01T05:08:35;99251.61;;;5.43;100.00
23899;BME280;20544;50.018;20.010;2023-05-01T05:11:51;99250.11;;;5.70;100.00
23899;BME280;20544;50.018;20.010;2023-05-01T05:15:10;99251.73;;;5.90;100.00
23899;BME280;20544;50.018;20.010;2023-05-01T05:18:26;99254.77;;;5.95;100.00
23899;BME280;20544;50.018;20.010;2023-05-01T05:21:43;99248.00;;;6.12;100.00
23899;BME280;20544;50.018;20.010;2023-05-01T05:25:00;99254.33;;;6.39;100.00
23899;BME280;20544;50.018;20.010;2023-05-01T05:28:18;99255.48;;;6.64;100.00
23899;BME280;20544;50.018;20.010;2023-05-01T05:31:37;99253.59;;;6.85;100.00
23899;BME280;20544;50.018;20.010;2023-05-01T05:35:10;99256.67;;;7.08;100.00
23899;BME280;20544;50.018;20.010;2023-05-01T05:38:27;99260.67;;;7.30;100.00
23899;BME280;20544;50.018;20.010;2023-05-01T05:41:43;99263.03;;;7.51;100.00
23899;BME280;20544;50.018;20.010;2023-05-01T05:45:04;99264.92;;;7.77;100.00
23899;BME280;20544;50.018;20.010;2023-05-01T05:48:24;99266.63;;;8.04;100.00
23899;BME280;20544;50.018;20.010;2023-05-01T05:51:40;99263.19;;;8.30;100.00
23899;BME280;20544;50.018;20.010;2023-05-01T05:54:58;99271.38;;;8.45;100.00
23899;BME280;20544;50.018;20.010;2023-05-01T05:58:15;99271.84;;;8.67;100.00
23899;BME280;20544;50.018;20.010;2023-05-01T06:01:33;99281.00;;;8.81;100.00
23899;BME280;20544;50.018;20.010;2023-05-01T06:04:50;99279.73;;;8.93;100.00
23899;BME280;20544;50.018;20.010;2023-05-01T06:08:08;99273.34;;;9.04;100.00
23899;BME280;20544;50.018;20.010;2023-05-01T06:11:25;99266.42;;;9.19;100.00
23899;BME280;20544;50.018;20.010;2023-05-01T06:14:41;99271.62;;;9.37;100.00
23899;BME280;20544;50.018;20.010;2023-05-01T06:17:58;99278.13;;;9.60;100.00
23899;BME280;20544;50.018;20.010;2023-05-01T06:21:14;99276.81;;;9.72;100.00
23899;BME280;20544;50.018;20.010;2023-05-01T06:24:31;99276.81;;;9.88;100.00
23899;BME280;20544;50.018;20.010;2023-05-01T06:27:49;99276.48;;;10.08;100.00
23899;BME280;20544;50.018;20.010;2023-05-01T06:31:06;99283.43;;;10.26;100.00
23899;BME280;20544;50.018;20.010;2023-05-01T06:34:24;99274.48;;;10.43;100.00
23899;BME280;20544;50.018;20.010;2023-05-01T06:37:41;99280.09;;;10.57;100.00
23899;BME280;20544;50.018;20.010;2023-05-01T06:40:57;99282.88;;;10.72;100.00
23899;BME280;20544;50.018;20.010;2023-05-01T06:44:14;99282.22;;;10.61;100.00
23899;BME280;20544;50.018;20.010;2023-05-01T06:47:30;99287.59;;;10.93;100.00
23899;BME280;20544;50.018;20.010;2023-05-01T06:50:48;99278.61;;;11.02;100.00
23899;BME280;20544;50.018;20.010;2023-05-01T06:54:04;99277.25;;;11.06;100.00
23899;BME280;20544;50.018;20.010;2023-05-01T06:57:22;99275.41;;;11.46;100.00
23899;BME280;20544;50.018;20.010;2023-05-01T07:00:39;99265.43;;;11.72;100.00
23899;BME280;20544;50.018;20.010;2023-05-01T07:03:56;99273.55;;;11.93;100.00
23899;BME280;20544;50.018;20.010;2023-05-01T07:07:12;99273.66;;;12.23;100.00
23899;BME280;20544;50.018;20.010;2023-05-01T07:10:28;99275.78;;;12.28;100.00
23899;BME280;20544;50.018;20.010;2023-05-01T07:13:47;99273.69;;;12.38;100.00
23899;BME280;20544;50.018;20.010;2023-05-01T07:17:04;99276.63;;;12.58;100.00
23899;BME280;20544;50.018;20.010;2023-05-01T07:20:21;99284.61;;;12.58;100.00
23899;BME280;20544;50.018;20.010;2023-05-01T07:23:38;99293.34;;;12.67;100.00
23899;BME280;20544;50.018;20.010;2023-05-01T07:26:55;99284.34;;;12.83;100.00
23899;BME280;20544;50.018;20.010;2023-05-01T07:30:13;99292.19;;;13.36;100.00
23899;BME280;20544;50.018;20.010;2023-05-01T07:33:29;99284.19;;;13.36;100.00
23899;BME280;20544;50.018;20.010;2023-05-01T07:36:46;99296.36;;;13.61;100.00
23899;BME280;20544;50.018;20.010;2023-05-01T07:40:03;99293.08;;;13.58;100.00
23899;BME280;20544;50.018;20.010;2023-05-01T07:43:21;99287.66;;;13.52;100.00
23899;BME280;20544;50.018;20.010;2023-05-01T07:46:37;99314.19;;;14.25;100.00
23899;BME280;20544;50.018;20.010;2023-05-01T07:49:56;99298.63;;;14.29;100.00
23899;BME280;20544;50.018;20.010;2023-05-01T07:53:13;99302.88;;;14.73;100.00
23899;BME280;20544;50.018;20.010;2023-05-01T07:56:30;99304.78;;;14.86;100.00
23899;BME280;20544;50.018;20.010;2023-05-01T07:59:47;99298.48;;;15.49;100.00
23899;BME280;20544;50.018;20.010;2023-05-01T08:03:05;99288.46;;;15.78;98.76
23899;BME280;20544;50.018;20.010;2023-05-01T08:06:22;99288.89;;;16.55;99.40
23899;BME280;20544;50.018;20.010;2023-05-01T08:09:38;99307.31;;;17.17;94.09
23899;BME280;20544;50.018;20.010;2023-05-01T08:12:55;99301.88;;;17.30;95.65
23899;BME280;20544;50.018;20.010;2023-05-01T08:16:15;99313.90;;;17.99;92.06
23899;BME280;20544;50.018;20.010;2023-05-01T08:19:33;99317.77;;;17.32;93.51
23899;BME280;20544;50.018;20.010;2023-05-01T08:22:54;99315.72;;;18.05;93.91
23899;BME280;20544;50.018;20.010;2023-05-01T08:26:11;99313.95;;;18.42;93.85
23899;BME280;20544;50.018;20.010;2023-05-01T08:29:30;99316.75;;;18.54;92.82
23899;BME280;20544;50.018;20.010;2023-05-01T08:32:46;99312.86;;;17.16;93.51
23899;BME280;20544;50.018;20.010;2023-05-01T08:36:03;99295.50;;;18.02;94.94
23899;BME280;20544;50.018;20.010;2023-05-01T08:39:28;99300.95;;;18.83;92.96
23899;BME280;20544;50.018;20.010;2023-05-01T08:42:46;99297.45;;;18.39;94.19
23899;BME280;20544;50.018;20.010;2023-05-01T08:46:14;99304.95;;;18.99;93.73
23899;BME280;20544;50.018;20.010;2023-05-01T08:49:35;99308.08;;;18.96;92.56
23899;BME280;20544;50.018;20.010;2023-05-01T08:52:52;99292.84;;;17.63;94.86
23899;BME280;20544;50.018;20.010;2023-05-01T08:56:11;99292.41;;;19.12;95.51
23899;BME280;20544;50.018;20.010;2023-05-01T08:59:34;99301.77;;;19.39;93.62
23899;BME280;20544;50.018;20.010;2023-05-01T09:02:52;99303.32;;;19.78;92.57
23899;BME280;20544;50.018;20.010;2023-05-01T09:06:10;99293.95;;;20.23;93.35
23899;BME280;20544;50.018;20.010;2023-05-01T09:09:27;99281.25;;;19.57;93.43
23899;BME280;20544;50.018;20.010;2023-05-01T09:12:46;99284.53;;;19.90;92.05
23899;BME280;20544;50.018;20.010;2023-05-01T09:16:06;99272.98;;;20.25;93.61
23899;BME280;20544;50.018;20.010;2023-05-01T09:19:24;99278.48;;;20.30;91.60
23899;BME280;20544;50.018;20.010;2023-05-01T09:22:44;99276.00;;;19.93;94.08
23899;BME280;20544;50.018;20.010;2023-05-01T09:26:04;99274.77;;;19.77;92.72
23899;BME280;20544;50.018;20.010;2023-05-01T09:29:40;99271.27;;;19.46;92.18
23899;BME280;20544;50.018;20.010;2023-05-01T09:33:07;99257.66;;;19.71;92.11
23899;BME280;20544;50.018;20.010;2023-05-01T09:36:26;99253.80;;;19.06;94.37
23899;BME280;20544;50.018;20.010;2023-05-01T09:39:44;99255.80;;;18.73;91.33
23899;BME280;20544;50.018;20.010;2023-05-01T09:43:01;99255.55;;;19.31;92.64
23899;BME280;20544;50.018;20.010;2023-05-01T09:46:19;99259.33;;;18.93;94.02
23899;BME280;20544;50.018;20.010;2023-05-01T09:49:47;99248.34;;;18.75;93.43
23899;BME280;20544;50.018;20.010;2023-05-01T09:53:04;99232.89;;;18.89;100.00
23899;BME280;20544;50.018;20.010;2023-05-01T09:56:22;99241.00;;;19.20;94.63
23899;BME280;20544;50.018;20.010;2023-05-01T09:59:39;99237.83;;;18.93;93.58
23899;BME280;20544;50.018;20.010;2023-05-01T10:03:11;99241.61;;;18.85;90.97
23899;BME280;20544;50.018;20.010;2023-05-01T10:06:34;99226.34;;;18.67;91.07
23899;BME280;20544;50.018;20.010;2023-05-01T10:10:17;99223.38;;;19.24;93.18
23899;BME280;20544;50.018;20.010;2023-05-01T10:13:37;99233.70;;;18.53;91.77
23899;BME280;20544;50.018;20.010;2023-05-01T10:16:54;99223.92;;;19.14;92.07
23899;BME280;20544;50.018;20.010;2023-05-01T10:20:13;99216.48;;;18.79;91.59
23899;BME280;20544;50.018;20.010;2023-05-01T10:23:30;99220.21;;;18.78;91.69
23899;BME280;20544;50.018;20.010;2023-05-01T10:26:48;99212.96;;;18.79;92.29
23899;BME280;20544;50.018;20.010;2023-05-01T10:30:10;99206.49;;;18.49;92.03
23899;BME280;20544;50.018;20.010;2023-05-01T10:33:30;99200.51;;;19.03;93.63
23899;BME280;20544;50.018;20.010;2023-05-01T10:36:51;99198.86;;;19.02;91.81
23899;BME280;20544;50.018;20.010;2023-05-01T10:40:44;99198.02;;;19.01;92.12
23899;BME280;20544;50.018;20.010;2023-05-01T10:44:24;99196.94;;;18.90;92.10
23899;BME280;20544;50.018;20.010;2023-05-01T10:47:47;99196.79;;;18.67;93.25
23899;BME280;20544;50.018;20.010;2023-05-01T10:51:11;99203.19;;;18.84;91.91
23899;BME280;20544;50.018;20.010;2023-05-01T10:54:31;99191.26;;;18.24;92.56
23899;BME280;20544;50.018;20.010;2023-05-01T10:57:48;99187.63;;;17.87;91.12
23899;BME280;20544;50.018;20.010;2023-05-01T11:01:30;99176.27;;;17.66;92.72
23899;BME280;20544;50.018;20.010;2023-05-01T11:14:09;99165.05;;;17.76;90.48
23899;BME280;20544;50.018;20.010;2023-05-01T11:22:47;99148.80;;;17.89;91.91
23899;BME280;20544;50.018;20.010;2023-05-01T11:26:06;99149.53;;;17.78;92.14
23899;BME280;20544;50.018;20.010;2023-05-01T11:29:22;99136.94;;;17.28;93.02
23899;BME280;20544;50.018;20.010;2023-05-01T11:32:41;99127.53;;;17.69;93.03
23899;BME280;20544;50.018;20.010;2023-05-01T11:36:02;99130.02;;;17.96;93.53
23899;BME280;20544;50.018;20.010;2023-05-01T11:39:20;99127.15;;;17.66;93.09
23899;BME280;20544;50.018;20.010;2023-05-01T11:42:36;99124.45;;;17.47;92.25
23899;BME280;20544;50.018;20.010;2023-05-01T11:45:55;99109.91;;;17.29;93.33
23899;BME280;20544;50.018;20.010;2023-05-01T11:49:15;99107.13;;;17.18;94.18
23899;BME280;20544;50.018;20.010;2023-05-01T11:52:44;99108.77;;;17.19;92.91
23899;BME280;20544;50.018;20.010;2023-05-01T11:56:03;99110.05;;;17.09;93.84
23899;BME280;20544;50.018;20.010;2023-05-01T11:59:25;99109.50;;;17.01;92.52
23899;BME280;20544;50.018;20.010;2023-05-01T12:02:55;99088.38;;;16.79;93.02
23899;BME280;20544;50.018;20.010;2023-05-01T12:06:14;99101.31;;;16.89;93.58
23899;BME280;20544;50.018;20.010;2023-05-01T12:09:31;99094.25;;;16.62;93.86
23899;BME280;20544;50.018;20.010;2023-05-01T12:12:50;99088.61;;;16.77;94.49
23899;BME280;20544;50.018;20.010;2023-05-01T12:16:07;99083.09;;;16.65;93.57
23899;BME280;20544;50.018;20.010;2023-05-01T12:19:25;99084.70;;;16.73;94.78
23899;BME280;20544;50.018;20.010;2023-05-01T12:22:52;99076.24;;;16.76;94.08
23899;BME280;20544;50.018;20.010;2023-05-01T12:26:18;99069.00;;;16.84;93.39
23899;BME280;20544;50.018;20.010;2023-05-01T12:29:42;99065.06;;;16.86;93.66
23899;BME280;20544;50.018;20.010;2023-05-01T12:33:08;99056.63;;;16.82;92.33
23899;BME280;20544;50.018;20.010;2023-05-01T12:36:27;99049.02;;;16.79;91.66
23899;BME280;20544;50.018;20.010;2023-05-01T12:39:44;99052.92;;;16.84;92.18
23899;BME280;20544;50.018;20.010;2023-05-01T12:43:01;99057.23;;;16.91;91.69
23899;BME280;20544;50.018;20.010;2023-05-01T12:46:17;99034.31;;;16.95;92.49
23899;BME280;20544;50.018;20.010;2023-05-01T12:49:35;99039.45;;;16.97;93.13
23899;BME280;20544;50.018;20.010;2023-05-01T12:52:52;99041.96;;;16.92;92.86
23899;BME280;20544;50.018;20.010;2023-05-01T12:56:16;99032.92;;;16.86;91.95
23899;BME280;20544;50.018;20.010;2023-05-01T12:59:37;99028.15;;;16.88;90.84
23899;BME280;20544;50.018;20.010;2023-05-01T13:02:54;99021.14;;;16.87;91.58
23899;BME280;20544;50.018;20.010;2023-05-01T13:06:17;99018.91;;;16.84;91.40
23899;BME280;20544;50.018;20.010;2023-05-01T13:09:33;99013.11;;;16.87;91.02
23899;BME280;20544;50.018;20.010;2023-05-01T13:12:50;99009.02;;;16.91;91.41
23899;BME280;20544;50.018;20.010;2023-05-01T13:16:08;99001.95;;;16.97;90.64
23899;BME280;20544;50.018;20.010;2023-05-01T13:19:29;99005.01;;;17.01;91.41
23899;BME280;20544;50.018;20.010;2023-05-01T13:22:46;99004.63;;;16.97;91.90
23899;BME280;20544;50.018;20.010;2023-05-01T13:26:03;98995.13;;;17.01;92.31
23899;BME280;20544;50.018;20.010;2023-05-01T13:29:23;98991.77;;;17.06;91.79
23899;BME280;20544;50.018;20.010;2023-05-01T13:32:41;98977.11;;;17.08;91.26
23899;BME280;20544;50.018;20.010;2023-05-01T13:35:59;98976.95;;;17.03;90.74
23899;BME280;20544;50.018;20.010;2023-05-01T13:39:19;98970.95;;;17.08;91.22
23899;BME280;20544;50.018;20.010;2023-05-01T13:42:34;98969.08;;;17.08;91.48
23899;BME280;20544;50.018;20.010;2023-05-01T13:45:50;98965.16;;;17.11;92.80
23899;BME280;20544;50.018;20.010;2023-05-01T13:49:12;98970.56;;;17.04;91.62
23899;BME280;20544;50.018;20.010;2023-05-01T13:52:29;98957.78;;;17.06;91.67
23899;BME280;20544;50.018;20.010;2023-05-01T13:55:46;98964.98;;;17.06;92.31
23899;BME280;20544;50.018;20.010;2023-05-01T13:59:06;98958.43;;;17.02;91.43
23899;BME280;20544;50.018;20.010;2023-05-01T14:02:25;98968.34;;;17.01;91.06
23899;BME280;20544;50.018;20.010;2023-05-01T14:05:44;98959.47;;;17.01;90.88
23899;BME280;20544;50.018;20.010;2023-05-01T14:09:02;98951.20;;;17.02;91.24
23899;BME280;20544;50.018;20.010;2023-05-01T14:12:20;98952.46;;;17.00;90.55
23899;BME280;20544;50.018;20.010;2023-05-01T14:15:40;98947.29;;;17.05;91.38
23899;BME280;20544;50.018;20.010;2023-05-01T14:18:57;98934.55;;;17.00;90.42
23899;BME280;20544;50.018;20.010;2023-05-01T14:22:14;98932.83;;;17.06;90.73
23899;BME280;20544;50.018;20.010;2023-05-01T14:25:32;98927.66;;;17.11;90.68
23899;BME280;20544;50.018;20.010;2023-05-01T14:28:48;98927.58;;;17.18;90.90
23899;BME280;20544;50.018;20.010;2023-05-01T14:32:08;98930.25;;;17.18;90.53
23899;BME280;20544;50.018;20.010;2023-05-01T14:35:36;98925.13;;;17.16;90.46
23899;BME280;20544;50.018;20.010;2023-05-01T14:39:08;98910.08;;;17.15;90.08
23899;BME280;20544;50.018;20.010;2023-05-01T14:42:26;98916.63;;;17.19;90.76
23899;BME280;20544;50.018;20.010;2023-05-01T14:45:49;98909.47;;;17.13;89.93
23899;BME280;20544;50.018;20.010;2023-05-01T14:49:05;98901.81;;;17.17;90.65
23899;BME280;20544;50.018;20.010;2023-05-01T14:52:23;98893.17;;;17.14;90.62
23899;BME280;20544;50.018;20.010;2023-05-01T14:55:43;98903.89;;;17.14;90.82
23899;BME280;20544;50.018;20.010;2023-05-01T14:59:02;98895.04;;;17.14;90.66
23899;BME280;20544;50.018;20.010;2023-05-01T15:02:18;98894.61;;;17.17;91.03
23899;BME280;20544;50.018;20.010;2023-05-01T15:05:36;98899.97;;;17.17;90.72
23899;BME280;20544;50.018;20.010;2023-05-01T15:08:54;98881.22;;;17.17;90.87
23899;BME280;20544;50.018;20.010;2023-05-01T15:12:12;98880.15;;;17.18;91.68
23899;BME280;20544;50.018;20.010;2023-05-01T15:15:31;98879.72;;;17.21;91.78
23899;BME280;20544;50.018;20.010;2023-05-01T15:18:47;98877.04;;;17.21;91.07
23899;BME280;20544;50.018;20.010;2023-05-01T15:22:04;98874.13;;;17.23;91.97
23899;BME280;20544;50.018;20.010;2023-05-01T15:25:21;98879.95;;;17.20;91.21
23899;BME280;20544;50.018;20.010;2023-05-01T15:28:37;98870.50;;;17.17;91.45
23899;BME280;20544;50.018;20.010;2023-05-01T15:31:53;98865.34;;;17.16;92.11
23899;BME280;20544;50.018;20.010;2023-05-01T15:35:15;98866.98;;;17.17;92.04
23899;BME280;20544;50.018;20.010;2023-05-01T15:38:31;98860.81;;;17.16;92.23
23899;BME280;20544;50.018;20.010;2023-05-01T15:41:48;98849.48;;;17.14;92.40
23899;BME280;20544;50.018;20.010;2023-05-01T15:45:09;98860.44;;;17.12;93.12
23899;BME280;20544;50.018;20.010;2023-05-01T15:48:26;98848.08;;;17.11;93.25
23899;BME280;20544;50.018;20.010;2023-05-01T15:51:42;98847.04;;;17.12;93.58
23899;BME280;20544;50.018;20.010;2023-05-01T15:55:03;98835.66;;;17.17;94.01
23899;BME280;20544;50.018;20.010;2023-05-01T15:58:23;98843.90;;;17.16;94.29
23899;BME280;20544;50.018;20.010;2023-05-01T16:01:39;98846.81;;;17.14;94.40
23899;BME280;20544;50.018;20.010;2023-05-01T16:04:57;98847.27;;;17.11;94.86
23899;BME280;20544;50.018;20.010;2023-05-01T16:08:13;98837.36;;;17.11;95.47
23899;BME280;20544;50.018;20.010;2023-05-01T16:11:33;98834.08;;;17.09;95.59
23899;BME280;20544;50.018;20.010;2023-05-01T16:14:50;98826.88;;;17.10;95.67
23899;BME280;20544;50.018;20.010;2023-05-01T16:18:18;98821.28;;;17.11;96.48
23899;BME280;20544;50.018;20.010;2023-05-01T16:21:32;98821.89;;;17.13;95.46
23899;BME280;20544;50.018;20.010;2023-05-01T16:24:50;98820.25;;;17.12;96.29
23899;BME280;20544;50.018;20.010;2023-05-01T16:28:07;98820.48;;;17.11;96.46
23899;BME280;20544;50.018;20.010;2023-05-01T16:31:25;98815.92;;;17.11;96.57
23899;BME280;20544;50.018;20.010;2023-05-01T16:34:43;98813.24;;;17.11;96.61
23899;BME280;20544;50.018;20.010;2023-05-01T16:38:00;98817.56;;;17.12;96.80
23899;BME280;20544;50.018;20.010;2023-05-01T16:41:18;98817.19;;;17.09;97.07
23899;BME280;20544;50.018;20.010;2023-05-01T16:44:36;98817.42;;;17.07;97.21
23899;BME280;20544;50.018;20.010;2023-05-01T16:47:52;98813.33;;;17.05;96.81
23899;BME280;20544;50.018;20.010;2023-05-01T16:51:10;98812.73;;;17.03;97.22
23899;BME280;20544;50.018;20.010;2023-05-01T16:54:28;98814.80;;;17.01;97.13
23899;BME280;20544;50.018;20.010;2023-05-01T16:57:44;98819.78;;;16.97;97.08
23899;BME280;20544;50.018;20.010;2023-05-01T17:01:02;98820.01;;;16.95;97.13
23899;BME280;20544;50.018;20.010;2023-05-01T17:04:21;98813.84;;;16.95;97.07
23899;BME280;20544;50.018;20.010;2023-05-01T17:07:42;98803.56;;;16.92;97.93
23899;BME280;20544;50.018;20.010;2023-05-01T17:10:58;98809.34;;;16.89;98.39
23899;BME280;20544;50.018;20.010;2023-05-01T17:14:14;98801.52;;;16.87;98.05
23899;BME280;20544;50.018;20.010;2023-05-01T17:17:32;98797.65;;;16.83;98.40
23899;BME280;20544;50.018;20.010;2023-05-01T17:20:49;98798.53;;;16.77;98.58
23899;BME280;20544;50.018;20.010;2023-05-01T17:24:06;98792.80;;;16.73;98.49
23899;BME280;20544;50.018;20.010;2023-05-01T17:27:27;98788.41;;;16.60;98.66
23899;BME280;20544;50.018;20.010;2023-05-01T17:30:43;98787.60;;;16.60;98.64
23899;BME280;20544;50.018;20.010;2023-05-01T17:34:04;98788.64;;;16.59;99.03
23899;BME280;20544;50.018;20.010;2023-05-01T17:37:33;98794.03;;;16.52;98.87
23899;BME280;20544;50.018;20.010;2023-05-01T17:40:50;98790.63;;;16.45;99.16
23899;BME280;20544;50.018;20.010;2023-05-01T17:44:06;98791.70;;;16.37;99.50